sensor_id;sensor_type;location;lat;lon;timestamp;temperature;humidity
33825;DHT22;20127;48.962;8.342;2023-08-06T00:02:14;16.30;99.90
33825;DHT22;20127;48.962;8.342;2023-08-06T00:05:17;16.20;99.90
33825;DHT22;20127;48.962;8.342;2023-08-06T00:08:21;16.20;99.90
33825;DHT22;20127;48.962;8.342;2023-08-06T00:11:23;16.10;99.90
33825;DHT22;20127;48.962;8.342;2023-08-06T00:14:25;16.10;99.90
33825;DHT22;20127;48.962;8.342;2023-08-06T00:17:27;16.00;99.90
33825;DHT22;20127;48.962;8.342;2023-08-06T00:20:32;15.90;99.90
33825;DHT22;20127;48.962;8.342;2023-08-06T00:23:34;16.00;99.90
33825;DHT22;20127;48.962;8.342;2023-08-06T00:26:49;15.90;99.90
33825;DHT22;20127;48.962;8.342;2023-08-06T00:30:06;15.80;99.90
33825;DHT22;20127;48.962;8.342;2023-08-06T00:33:08;15.70;99.90
33825;DHT22;20127;48.962;8.342;2023-08-06T00:36:11;15.70;99.90
33825;DHT22;20127;48.962;8.342;2023-08-06T00:39:13;15.50;99.90
33825;DHT22;20127;48.962;8.342;2023-08-06T00:42:15;15.60;99.90
33825;DHT22;20127;48.962;8.342;2023-08-06T00:45:29;15.60;99.90
33825;DHT22;20127;48.962;8.342;2023-08-06T00:48:31;15.60;99.90
33825;DHT22;20127;48.962;8.342;2023-08-06T00:51:41;15.70;99.90
33825;DHT22;20127;48.962;8.342;2023-08-06T01:07:03;15.70;99.90
33825;DHT22;20127;48.962;8.342;2023-08-06T01:14:53;15.60;99.90
33825;DHT22;20127;48.962;8.342;2023-08-06T01:18:25;15.70;99.90
33825;DHT22;20127;48.962;8.342;2023-08-06T01:21:35;15.70;99.90
33825;DHT22;20127;48.962;8.342;2023-08-06T01:24:37;15.70;99.90
33825;DHT22;20127;48.962;8.342;2023-08-06T01:27:45;15.90;99.90
33825;DHT22;20127;48.962;8.342;2023-08-06T01:30:49;15.80;99.90
33825;DHT22;20127;48.962;8.342;2023-08-06T01:33:53;15.90;99.90
33825;DHT22;20127;48.962;8.342;2023-08-06T01:36:57;15.90;99.90
33825;DHT22;20127;48.962;8.342;2023-08-06T01:39:59;16.00;99.90
33825;DHT22;20127;48.962;8.342;2023-08-06T01:43:01;16.00;99.90
33825;DHT22;20127;48.962;8.342;2023-08-06T01:46:02;16.10;99.90
33825;DHT22;20127;48.962;8.342;2023-08-06T01:49:04;16.10;99.90
33825;DHT22;20127;48.962;8.342;2023-08-06T01:52:07;16.20;99.90
33825;DHT22;20127;48.962;8.342;2023-08-06T01:55:09;15.90;99.90
33825;DHT22;20127;48.962;8.342;2023-08-06T01:58:11;15.70;99.90
33825;DHT22;20127;48.962;8.342;2023-08-06T02:01:12;15.60;99.90
33825;DHT22;20127;48.962;8.342;2023-08-06T02:04:14;15.50;99.90
33825;DHT22;20127;48.962;8.342;2023-08-06T02:07:17;15.40;99.90
33825;DHT22;20127;48.962;8.342;2023-08-06T02:10:19;15.50;99.90
33825;DHT22;20127;48.962;8.342;2023-08-06T02:13:21;15.40;99.90
33825;DHT22;20127;48.962;8.342;2023-08-06T02:16:22;15.40;99.90
33825;DHT22;20127;48.962;8.342;2023-08-06T02:19:24;15.40;99.90
33825;DHT22;20127;48.962;8.342;2023-08-06T02:22:27;15.50;99.90
33825;DHT22;20127;48.962;8.342;2023-08-06T02:25:29;15.40;99.90
33825;DHT22;20127;48.962;8.342;2023-08-06T02:28:31;15.40;99.90
33825;DHT22;20127;48.962;8.342;2023-08-06T02:31:33;15.50;99.90
33825;DHT22;20127;48.962;8.342;2023-08-06T02:34:34;15.50;99.90
33825;DHT22;20127;48.962;8.342;2023-08-06T02:37:37;15.50;99.90
33825;DHT22;20127;48.962;8.342;2023-08-06T02:40:43;15.60;99.90
33825;DHT22;20127;48.962;8.342;2023-08-06T02:43:45;15.60;99.90
33825;DHT22;20127;48.962;8.342;2023-08-06T02:46:50;15.60;99.90
33825;DHT22;20127;48.962;8.342;2023-08-06T02:49:52;15.60;99.90
33825;DHT22;20127;48.962;8.342;2023-08-06T02:52:55;15.70;99.90
33825;DHT22;20127;48.962;8.342;2023-08-06T02:55:56;15.60;99.90
33825;DHT22;20127;48.962;8.342;2023-08-06T02:58:59;15.70;99.90
33825;DHT22;20127;48.962;8.342;2023-08-06T03:02:02;15.60;99.90
33825;DHT22;20127;48.962;8.342;2023-08-06T03:05:04;15.50;99.90
33825;DHT22;20127;48.962;8.342;2023-08-06T03:08:07;15.50;99.90
33825;DHT22;20127;48.962;8.342;2023-08-06T03:11:09;15.40;99.90
33825;DHT22;20127;48.962;8.342;2023-08-06T03:14:12;15.40;99.90
33825;DHT22;20127;48.962;8.342;2023-08-06T03:17:22;15.30;99.90
33825;DHT22;20127;48.962;8.342;2023-08-06T03:20:25;15.20;99.90
33825;DHT22;20127;48.962;8.342;2023-08-06T03:23:28;15.20;99.90
33825;DHT22;20127;48.962;8.342;2023-08-06T03:26:29;15.20;99.90
33825;DHT22;20127;48.962;8.342;2023-08-06T03:29:31;15.20;99.90
33825;DHT22;20127;48.962;8.342;2023-08-06T03:32:33;15.20;99.90
33825;DHT22;20127;48.962;8.342;2023-08-06T03:35:34;15.20;99.90
33825;DHT22;20127;48.962;8.342;2023-08-06T03:38:37;15.20;99.90
33825;DHT22;20127;48.962;8.342;2023-08-06T03:41:39;15.20;99.90
33825;DHT22;20127;48.962;8.342;2023-08-06T03:44:41;15.20;99.90
33825;DHT22;20127;48.962;8.342;2023-08-06T03:47:42;15.20;99.90
33825;DHT22;20127;48.962;8.342;2023-08-06T03:50:44;15.20;99.90
33825;DHT22;20127;48.962;8.342;2023-08-06T03:53:47;15.20;99.90
33825;DHT22;20127;48.962;8.342;2023-08-06T03:56:49;15.20;99.90
33825;DHT22;20127;48.962;8.342;2023-08-06T03:59:50;15.20;99.90
33825;DHT22;20127;48.962;8.342;2023-08-06T04:02:52;15.20;99.90
33825;DHT22;20127;48.962;8.342;2023-08-06T04:05:54;15.20;99.90
33825;DHT22;20127;48.962;8.342;2023-08-06T04:08:57;15.20;99.90
33825;DHT22;20127;48.962;8.342;2023-08-06T04:11:59;15.20;99.90
33825;DHT22;20127;48.962;8.342;2023-08-06T04:15:02;15.10;99.90
33825;DHT22;20127;48.962;8.342;2023-08-06T04:18:04;15.10;99.90
33825;DHT22;20127;48.962;8.342;2023-08-06T04:21:06;15.00;99.90
33825;DHT22;20127;48.962;8.342;2023-08-06T04:24:09;15.00;99.90
33825;DHT22;20127;48.962;8.342;2023-08-06T04:27:11;15.00;99.90
33825;DHT22;20127;48.962;8.342;2023-08-06T04:30:13;15.00;99.90
33825;DHT22;20127;48.962;8.342;2023-08-06T04:33:14;15.00;99.90
33825;DHT22;20127;48.962;8.342;2023-08-06T04:36:16;15.00;99.90
33825;DHT22;20127;48.962;8.342;2023-08-06T04:39:19;14.90;99.90
33825;DHT22;20127;48.962;8.342;2023-08-06T04:42:21;14.90;99.90
33825;DHT22;20127;48.962;8.342;2023-08-06T04:45:22;14.90;99.90
33825;DHT22;20127;48.962;8.342;2023-08-06T04:48:24;14.90;99.90
33825;DHT22;20127;48.962;8.342;2023-08-06T04:51:26;14.90;99.90
33825;DHT22;20127;48.962;8.342;2023-08-06T04:54:29;15.00;99.90
33825;DHT22;20127;48.962;8.342;2023-08-06T04:57:31;14.90;99.90
33825;DHT22;20127;48.962;8.342;2023-08-06T05:00:33;14.90;99.90
33825;DHT22;20127;48.962;8.342;2023-08-06T05:03:35;15.00;99.90
33825;DHT22;20127;48.962;8.342;2023-08-06T05:06:36;15.00;99.90
33825;DHT22;20127;48.962;8.342;2023-08-06T05:09:40;15.10;99.90
33825;DHT22;20127;48.962;8.342;2023-08-06T05:12:42;15.20;99.90
33825;DHT22;20127;48.962;8.342;2023-08-06T05:15:44;15.30;99.90
33825;DHT22;20127;48.962;8.342;2023-08-06T05:18:46;15.30;99.90
33825;DHT22;20127;48.962;8.342;2023-08-06T05:21:48;15.40;99.90
33825;DHT22;20127;48.962;8.342;2023-08-06T05:24:51;15.30;99.90
33825;DHT22;20127;48.962;8.342;2023-08-06T05:27:53;15.30;99.90
33825;DHT22;20127;48.962;8.342;2023-08-06T05:30:54;15.30;99.90
33825;DHT22;20127;48.962;8.342;2023-08-06T05:33:56;15.30;99.90
33825;DHT22;20127;48.962;8.342;2023-08-06T05:36:58;15.30;99.90
33825;DHT22;20127;48.962;8.342;2023-08-06T05:40:01;15.40;99.90
33825;DHT22;20127;48.962;8.342;2023-08-06T05:43:04;15.30;99.90
33825;DHT22;20127;48.962;8.342;2023-08-06T05:46:06;15.30;99.90
33825;DHT22;20127;48.962;8.342;2023-08-06T05:49:07;15.20;99.90
33825;DHT22;20127;48.962;8.342;2023-08-06T05:52:09;15.30;99.90
33825;DHT22;20127;48.962;8.342;2023-08-06T05:55:12;15.30;99.90
33825;DHT22;20127;48.962;8.342;2023-08-06T05:58:13;15.20;99.90
33825;DHT22;20127;48.962;8.342;2023-08-06T06:01:15;15.20;99.90
33825;DHT22;20127;48.962;8.342;2023-08-06T06:04:17;15.30;99.90
33825;DHT22;20127;48.962;8.342;2023-08-06T06:07:18;15.30;99.90
33825;DHT22;20127;48.962;8.342;2023-08-06T06:10:21;15.40;99.90
33825;DHT22;20127;48.962;8.342;2023-08-06T06:13:23;15.40;99.90
33825;DHT22;20127;48.962;8.342;2023-08-06T06:16:25;15.40;99.90
33825;DHT22;20127;48.962;8.342;2023-08-06T06:19:27;15.50;99.90
33825;DHT22;20127;48.962;8.342;2023-08-06T06:22:28;15.50;99.90
33825;DHT22;20127;48.962;8.342;2023-08-06T06:25:31;15.50;99.90
33825;DHT22;20127;48.962;8.342;2023-08-06T06:28:33;15.50;99.90
33825;DHT22;20127;48.962;8.342;2023-08-06T06:31:35;15.40;99.90
33825;DHT22;20127;48.962;8.342;2023-08-06T06:34:36;15.40;99.90
33825;DHT22;20127;48.962;8.342;2023-08-06T06:37:38;15.40;99.90
33825;DHT22;20127;48.962;8.342;2023-08-06T06:40:41;15.30;99.90
33825;DHT22;20127;48.962;8.342;2023-08-06T06:43:43;15.20;99.90
33825;DHT22;20127;48.962;8.342;2023-08-06T06:46:51;15.20;99.90
33825;DHT22;20127;48.962;8.342;2023-08-06T06:50:05;15.20;99.90
33825;DHT22;20127;48.962;8.342;2023-08-06T06:53:08;15.10;99.90
33825;DHT22;20127;48.962;8.342;2023-08-06T06:56:11;15.10;99.90
33825;DHT22;20127;48.962;8.342;2023-08-06T06:59:13;15.10;99.90
33825;DHT22;20127;48.962;8.342;2023-08-06T07:02:15;15.10;99.90
33825;DHT22;20127;48.962;8.342;2023-08-06T07:05:16;15.10;99.90
33825;DHT22;20127;48.962;8.342;2023-08-06T07:08:18;15.10;99.90
33825;DHT22;20127;48.962;8.342;2023-08-06T07:11:21;15.20;99.90
33825;DHT22;20127;48.962;8.342;2023-08-06T07:14:25;15.10;99.90
33825;DHT22;20127;48.962;8.342;2023-08-06T07:17:26;15.30;99.90
33825;DHT22;20127;48.962;8.342;2023-08-06T07:20:28;15.30;99.90
33825;DHT22;20127;48.962;8.342;2023-08-06T07:23:32;15.40;99.90
33825;DHT22;20127;48.962;8.342;2023-08-06T07:26:35;15.60;99.90
33825;DHT22;20127;48.962;8.342;2023-08-06T07:29:36;15.70;99.90
33825;DHT22;20127;48.962;8.342;2023-08-06T07:32:38;15.80;99.90
33825;DHT22;20127;48.962;8.342;2023-08-06T07:36:09;15.70;99.90
33825;DHT22;20127;48.962;8.342;2023-08-06T07:39:14;15.60;99.90
33825;DHT22;20127;48.962;8.342;2023-08-06T07:42:24;15.50;99.90
33825;DHT22;20127;48.962;8.342;2023-08-06T07:45:34;15.50;99.90
33825;DHT22;20127;48.962;8.342;2023-08-06T07:48:37;15.40;99.90
33825;DHT22;20127;48.962;8.342;2023-08-06T07:51:45;15.30;99.90
33825;DHT22;20127;48.962;8.342;2023-08-06T07:54:50;15.30;99.90
33825;DHT22;20127;48.962;8.342;2023-08-06T07:57:53;15.30;99.90
33825;DHT22;20127;48.962;8.342;2023-08-06T08:00:55;15.40;99.90
33825;DHT22;20127;48.962;8.342;2023-08-06T08:03:57;15.30;99.90
33825;DHT22;20127;48.962;8.342;2023-08-06T08:06:59;15.30;99.90
33825;DHT22;20127;48.962;8.342;2023-08-06T08:10:02;15.20;99.90
33825;DHT22;20127;48.962;8.342;2023-08-06T08:13:07;15.10;99.90
33825;DHT22;20127;48.962;8.342;2023-08-06T08:16:09;15.10;99.90
33825;DHT22;20127;48.962;8.342;2023-08-06T08:19:10;15.00;99.90
33825;DHT22;20127;48.962;8.342;2023-08-06T08:22:12;15.00;99.90
33825;DHT22;20127;48.962;8.342;2023-08-06T08:25:15;15.00;99.90
33825;DHT22;20127;48.962;8.342;2023-08-06T08:28:18;15.10;99.90
33825;DHT22;20127;48.962;8.342;2023-08-06T08:31:20;15.20;99.90
33825;DHT22;20127;48.962;8.342;2023-08-06T08:34:22;15.10;99.90
33825;DHT22;20127;48.962;8.342;2023-08-06T08:37:26;15.20;99.90
33825;DHT22;20127;48.962;8.342;2023-08-06T08:40:32;15.30;99.90
33825;DHT22;20127;48.962;8.342;2023-08-06T08:43:36;15.30;99.90
33825;DHT22;20127;48.962;8.342;2023-08-06T08:47:13;15.50;99.90
33825;DHT22;20127;48.962;8.342;2023-08-06T08:50:27;15.50;99.90
33825;DHT22;20127;48.962;8.342;2023-08-06T08:53:28;15.40;99.90
33825;DHT22;20127;48.962;8.342;2023-08-06T08:56:33;15.40;99.90
33825;DHT22;20127;48.962;8.342;2023-08-06T08:59:37;15.40;99.90
33825;DHT22;20127;48.962;8.342;2023-08-06T09:02:39;15.30;99.90
33825;DHT22;20127;48.962;8.342;2023-08-06T09:05:44;15.20;99.90
33825;DHT22;20127;48.962;8.342;2023-08-06T09:08:51;15.20;99.90
33825;DHT22;20127;48.962;8.342;2023-08-06T09:11:59;15.20;99.90
33825;DHT22;20127;48.962;8.342;2023-08-06T09:15:03;15.30;99.90
33825;DHT22;20127;48.962;8.342;2023-08-06T09:18:09;15.40;99.90
33825;DHT22;20127;48.962;8.342;2023-08-06T09:21:14;15.30;99.90
33825;DHT22;20127;48.962;8.342;2023-08-06T09:24:16;15.20;99.90
33825;DHT22;20127;48.962;8.342;2023-08-06T09:27:18;15.20;99.90
33825;DHT22;20127;48.962;8.342;2023-08-06T09:30:30;15.20;99.90
33825;DHT22;20127;48.962;8.342;2023-08-06T09:33:32;15.30;99.90
33825;DHT22;20127;48.962;8.342;2023-08-06T09:36:34;15.40;99.90
33825;DHT22;20127;48.962;8.342;2023-08-06T09:39:37;15.50;99.90
33825;DHT22;20127;48.962;8.342;2023-08-06T09:42:42;15.50;99.90
33825;DHT22;20127;48.962;8.342;2023-08-06T09:45:47;15.50;99.90
33825;DHT22;20127;48.962;8.342;2023-08-06T09:48:50;15.50;99.90
33825;DHT22;20127;48.962;8.342;2023-08-06T09:51:52;15.50;99.90
33825;DHT22;20127;48.962;8.342;2023-08-06T09:54:56;15.50;99.90
33825;DHT22;20127;48.962;8.342;2023-08-06T09:57:59;15.50;99.90
33825;DHT22;20127;48.962;8.342;2023-08-06T10:01:02;15.50;99.90
33825;DHT22;20127;48.962;8.342;2023-08-06T10:04:06;15.50;99.90
33825;DHT22;20127;48.962;8.342;2023-08-06T10:07:09;15.60;99.90
33825;DHT22;20127;48.962;8.342;2023-08-06T10:10:10;15.60;99.90
33825;DHT22;20127;48.962;8.342;2023-08-06T10:13:13;15.50;99.90
33825;DHT22;20127;48.962;8.342;2023-08-06T10:16:16;15.50;99.90
33825;DHT22;20127;48.962;8.342;2023-08-06T10:19:19;15.40;99.90
33825;DHT22;20127;48.962;8.342;2023-08-06T10:22:21;15.30;99.90
33825;DHT22;20127;48.962;8.342;2023-08-06T10:25:24;15.20;99.90
33825;DHT22;20127;48.962;8.342;2023-08-06T10:28:34;15.20;99.90
33825;DHT22;20127;48.962;8.342;2023-08-06T10:31:58;15.20;99.90
33825;DHT22;20127;48.962;8.342;2023-08-06T10:35:01;15.20;99.90
33825;DHT22;20127;48.962;8.342;2023-08-06T10:38:05;15.20;99.90
33825;DHT22;20127;48.962;8.342;2023-08-06T10:41:15;15.20;99.90
33825;DHT22;20127;48.962;8.342;2023-08-06T10:44:17;15.20;99.90
33825;DHT22;20127;48.962;8.342;2023-08-06T10:47:27;15.30;99.90
33825;DHT22;20127;48.962;8.342;2023-08-06T10:50:29;15.30;99.90
33825;DHT22;20127;48.962;8.342;2023-08-06T10:53:31;15.40;99.90
33825;DHT22;20127;48.962;8.342;2023-08-06T10:56:39;15.30;99.90
33825;DHT22;20127;48.962;8.342;2023-08-06T10:59:42;15.30;99.90
33825;DHT22;20127;48.962;8.342;2023-08-06T11:02:47;15.20;99.90
33825;DHT22;20127;48.962;8.342;2023-08-06T11:05:49;15.20;99.90
33825;DHT22;20127;48.962;8.342;2023-08-06T11:08:52;15.20;99.90
33825;DHT22;20127;48.962;8.342;2023-08-06T11:11:54;15.20;99.90
33825;DHT22;20127;48.962;8.342;2023-08-06T11:14:56;15.30;99.90
33825;DHT22;20127;48.962;8.342;2023-08-06T11:17:59;15.30;99.90
33825;DHT22;20127;48.962;8.342;2023-08-06T11:21:03;15.40;99.90
33825;DHT22;20127;48.962;8.342;2023-08-06T11:24:04;15.60;99.90
33825;DHT22;20127;48.962;8.342;2023-08-06T11:27:11;15.70;99.90
33825;DHT22;20127;48.962;8.342;2023-08-06T11:30:14;15.80;99.90
33825;DHT22;20127;48.962;8.342;2023-08-06T11:33:21;15.90;99.90
33825;DHT22;20127;48.962;8.342;2023-08-06T11:36:29;15.90;99.90
33825;DHT22;20127;48.962;8.342;2023-08-06T11:39:32;15.90;99.90
33825;DHT22;20127;48.962;8.342;2023-08-06T11:42:35;15.90;99.90
33825;DHT22;20127;48.962;8.342;2023-08-06T11:45:44;16.00;99.90
33825;DHT22;20127;48.962;8.342;2023-08-06T11:48:55;16.10;99.90
33825;DHT22;20127;48.962;8.342;2023-08-06T11:52:17;16.30;99.90
33825;DHT22;20127;48.962;8.342;2023-08-06T11:55:33;16.40;99.90
33825;DHT22;20127;48.962;8.342;2023-08-06T11:58:43;16.50;99.90
33825;DHT22;20127;48.962;8.342;2023-08-06T12:01:53;16.50;99.90
33825;DHT22;20127;48.962;8.342;2023-08-06T12:05:09;16.60;99.90
33825;DHT22;20127;48.962;8.342;2023-08-06T12:08:18;16.60;99.90
33825;DHT22;20127;48.962;8.342;2023-08-06T12:11:21;16.50;99.90
33825;DHT22;20127;48.962;8.342;2023-08-06T12:14:28;16.50;99.90
33825;DHT22;20127;48.962;8.342;2023-08-06T12:17:38;16.40;99.90
33825;DHT22;20127;48.962;8.342;2023-08-06T12:20:57;16.40;99.90
33825;DHT22;20127;48.962;8.342;2023-08-06T12:23:59;16.50;99.90
33825;DHT22;20127;48.962;8.342;2023-08-06T12:27:06;16.50;99.90
33825;DHT22;20127;48.962;8.342;2023-08-06T12:30:23;16.60;99.90
33825;DHT22;20127;48.962;8.342;2023-08-06T12:33:25;16.70;99.90
33825;DHT22;20127;48.962;8.342;2023-08-06T12:36:29;16.80;99.90
33825;DHT22;20127;48.962;8.342;2023-08-06T12:39:31;16.90;99.90
33825;DHT22;20127;48.962;8.342;2023-08-06T12:42:33;17.00;99.90
33825;DHT22;20127;48.962;8.342;2023-08-06T12:45:35;17.00;99.90
33825;DHT22;20127;48.962;8.342;2023-08-06T12:48:37;16.90;99.90
33825;DHT22;20127;48.962;8.342;2023-08-06T12:51:40;16.80;99.90
33825;DHT22;20127;48.962;8.342;2023-08-06T12:54:42;16.90;99.90
33825;DHT22;20127;48.962;8.342;2023-08-06T12:57:44;17.00;99.90
33825;DHT22;20127;48.962;8.342;2023-08-06T13:00:45;17.20;99.90
33825;DHT22;20127;48.962;8.342;2023-08-06T13:03:47;17.50;99.90
33825;DHT22;20127;48.962;8.342;2023-08-06T13:06:50;17.70;99.90
33825;DHT22;20127;48.962;8.342;2023-08-06T13:09:53;17.80;99.90
33825;DHT22;20127;48.962;8.342;2023-08-06T13:12:55;17.80;99.90
33825;DHT22;20127;48.962;8.342;2023-08-06T13:16:06;17.90;99.90
33825;DHT22;20127;48.962;8.342;2023-08-06T13:19:09;18.20;99.90
33825;DHT22;20127;48.962;8.342;2023-08-06T13:22:32;18.60;99.90
33825;DHT22;20127;48.962;8.342;2023-08-06T13:25:34;18.90;99.90
33825;DHT22;20127;48.962;8.342;2023-08-06T13:28:39;19.10;99.90
33825;DHT22;20127;48.962;8.342;2023-08-06T13:31:47;19.10;99.90
33825;DHT22;20127;48.962;8.342;2023-08-06T13:34:49;18.80;99.90
33825;DHT22;20127;48.962;8.342;2023-08-06T13:37:53;18.70;99.90
33825;DHT22;20127;48.962;8.342;2023-08-06T13:40:58;18.90;99.90
33825;DHT22;20127;48.962;8.342;2023-08-06T13:44:01;19.10;99.90
33825;DHT22;20127;48.962;8.342;2023-08-06T13:47:03;19.30;99.90
33825;DHT22;20127;48.962;8.342;2023-08-06T13:50:06;19.20;99.90
33825;DHT22;20127;48.962;8.342;2023-08-06T13:53:10;19.00;99.90
33825;DHT22;20127;48.962;8.342;2023-08-06T13:56:15;19.10;99.90
33825;DHT22;20127;48.962;8.342;2023-08-06T13:59:18;19.30;99.90
33825;DHT22;20127;48.962;8.342;2023-08-06T14:02:21;19.20;99.90
33825;DHT22;20127;48.962;8.342;2023-08-06T14:05:25;19.30;99.90
33825;DHT22;20127;48.962;8.342;2023-08-06T14:08:29;19.70;99.90
33825;DHT22;20127;48.962;8.342;2023-08-06T14:11:32;20.10;99.90
33825;DHT22;20127;48.962;8.342;2023-08-06T14:14:34;20.40;99.90
33825;DHT22;20127;48.962;8.342;2023-08-06T14:17:36;20.50;99.90
33825;DHT22;20127;48.962;8.342;2023-08-06T14:20:38;20.70;99.90
33825;DHT22;20127;48.962;8.342;2023-08-06T14:23:41;20.50;99.90
33825;DHT22;20127;48.962;8.342;2023-08-06T14:26:43;20.60;99.90
33825;DHT22;20127;48.962;8.342;2023-08-06T14:29:45;20.70;99.90
33825;DHT22;20127;48.962;8.342;2023-08-06T14:32:46;20.50;99.90
33825;DHT22;20127;48.962;8.342;2023-08-06T14:35:48;20.30;99.90
33825;DHT22;20127;48.962;8.342;2023-08-06T14:38:51;19.80;99.90
33825;DHT22;20127;48.962;8.342;2023-08-06T14:41:53;19.60;99.90
33825;DHT22;20127;48.962;8.342;2023-08-06T14:44:55;19.60;99.90
33825;DHT22;20127;48.962;8.342;2023-08-06T14:47:57;19.50;99.90
33825;DHT22;20127;48.962;8.342;2023-08-06T14:50:59;19.50;99.90
33825;DHT22;20127;48.962;8.342;2023-08-06T14:54:02;19.50;99.90
33825;DHT22;20127;48.962;8.342;2023-08-06T14:57:04;19.40;99.90
33825;DHT22;20127;48.962;8.342;2023-08-06T15:00:08;19.30;99.90
33825;DHT22;20127;48.962;8.342;2023-08-06T15:03:11;19.20;99.90
33825;DHT22;20127;48.962;8.342;2023-08-06T15:06:13;19.20;99.90
33825;DHT22;20127;48.962;8.342;2023-08-06T15:09:16;19.20;99.90
33825;DHT22;20127;48.962;8.342;2023-08-06T15:12:17;19.10;99.90
33825;DHT22;20127;48.962;8.342;2023-08-06T15:15:20;19.00;99.90
33825;DHT22;20127;48.962;8.342;2023-08-06T15:18:23;18.90;99.90
33825;DHT22;20127;48.962;8.342;2023-08-06T15:21:25;19.20;99.90
33825;DHT22;20127;48.962;8.342;2023-08-06T15:24:28;19.70;99.90
33825;DHT22;20127;48.962;8.342;2023-08-06T15:27:30;20.20;99.90
33825;DHT22;20127;48.962;8.342;2023-08-06T15:30:33;20.40;99.90
33825;DHT22;20127;48.962;8.342;2023-08-06T15:33:35;20.30;99.90
33825;DHT22;20127;48.962;8.342;2023-08-06T15:36:36;20.40;99.90
33825;DHT22;20127;48.962;8.342;2023-08-06T15:39:39;20.40;99.90
33825;DHT22;20127;48.962;8.342;2023-08-06T15:42:42;20.20;99.90
33825;DHT22;20127;48.962;8.342;2023-08-06T15:45:43;20.00;99.90
33825;DHT22;20127;48.962;8.342;2023-08-06T15:48:45;19.90;99.90
33825;DHT22;20127;48.962;8.342;2023-08-06T15:51:47;19.50;99.90
33825;DHT22;20127;48.962;8.342;2023-08-06T15:54:50;19.30;99.90
33825;DHT22;20127;48.962;8.342;2023-08-06T15:57:51;19.10;99.90
33825;DHT22;20127;48.962;8.342;2023-08-06T16:00:53;18.80;99.90
33825;DHT22;20127;48.962;8.342;2023-08-06T16:03:55;18.30;99.90
33825;DHT22;20127;48.962;8.342;2023-08-06T16:06:57;17.60;99.90
33825;DHT22;20127;48.962;8.342;2023-08-06T16:10:00;16.90;99.90
33825;DHT22;20127;48.962;8.342;2023-08-06T16:13:02;16.60;99.90
33825;DHT22;20127;48.962;8.342;2023-08-06T16:16:04;16.30;99.90
33825;DHT22;20127;48.962;8.342;2023-08-06T16:19:06;16.20;99.90
33825;DHT22;20127;48.962;8.342;2023-08-06T16:22:08;16.10;99.90
33825;DHT22;20127;48.962;8.342;2023-08-06T16:25:13;16.00;99.90
33825;DHT22;20127;48.962;8.342;2023-08-06T16:28:15;15.90;99.90
33825;DHT22;20127;48.962;8.342;2023-08-06T16:31:17;15.90;99.90
33825;DHT22;20127;48.962;8.342;2023-08-06T16:34:19;15.80;99.90
33825;DHT22;20127;48.962;8.342;2023-08-06T16:37:21;15.90;99.90
33825;DHT22;20127;48.962;8.342;2023-08-06T16:40:24;15.90;99.90
33825;DHT22;20127;48.962;8.342;2023-08-06T16:43:26;16.00;99.90
33825;DHT22;20127;48.962;8.342;2023-08-06T16:46:28;16.10;99.90
33825;DHT22;20127;48.962;8.342;2023-08-06T16:49:30;16.30;99.90
33825;DHT22;20127;48.962;8.342;2023-08-06T16:52:31;16.50;99.90
33825;DHT22;20127;48.962;8.342;2023-08-06T16:55:35;16.60;99.90
33825;DHT22;20127;48.962;8.342;2023-08-06T16:58:36;16.70;99.90
33825;DHT22;20127;48.962;8.342;2023-08-06T17:01:38;16.70;99.90
33825;DHT22;20127;48.962;8.342;2023-08-06T17:04:40;16.60;99.90
33825;DHT22;20127;48.962;8.342;2023-08-06T17:07:42;16.70;99.90
33825;DHT22;20127;48.962;8.342;2023-08-06T17:10:46;16.70;99.90
33825;DHT22;20127;48.962;8.342;2023-08-06T17:13:47;16.80;99.90
33825;DHT22;20127;48.962;8.342;2023-08-06T17:16:49;16.80;99.90
33825;DHT22;20127;48.962;8.342;2023-08-06T17:19:51;16.80;99.90
33825;DHT22;20127;48.962;8.342;2023-08-06T17:22:52;16.80;99.90
33825;DHT22;20127;48.962;8.342;2023-08-06T17:25:55;16.80;99.90
33825;DHT22;20127;48.962;8.342;2023-08-06T17:28:57;16.80;99.90
33825;DHT22;20127;48.962;8.342;2023-08-06T17:31:59;16.80;99.90
33825;DHT22;20127;48.962;8.342;2023-08-06T17:35:01;16.90;99.90
33825;DHT22;20127;48.962;8.342;2023-08-06T17:38:03;16.90;99.90
33825;DHT22;20127;48.962;8.342;2023-08-06T17:41:06;16.90;99.90
33825;DHT22;20127;48.962;8.342;2023-08-06T17:44:08;16.90;99.90
33825;DHT22;20127;48.962;8.342;2023-08-06T17:47:09;17.00;99.90
33825;DHT22;20127;48.962;8.342;2023-08-06T17:50:11;17.00;99.90
33825;DHT22;20127;48.962;8.342;2023-08-06T17:53:13;16.90;99.90
33825;DHT22;20127;48.962;8.342;2023-08-06T17:56:16;16.90;99.90
33825;DHT22;20127;48.962;8.342;2023-08-06T17:59:17;16.90;99.90
33825;DHT22;20127;48.962;8.342;2023-08-06T18:02:19;16.90;99.90
33825;DHT22;20127;48.962;8.342;2023-08-06T18:05:21;16.90;99.90
33825;DHT22;20127;48.962;8.342;2023-08-06T18:08:23;17.10;99.90
33825;DHT22;20127;48.962;8.342;2023-08-06T18:11:26;17.10;99.90
33825;DHT22;20127;48.962;8.342;2023-08-06T18:14:28;17.20;99.90
33825;DHT22;20127;48.962;8.342;2023-08-06T18:17:30;17.20;99.90
33825;DHT22;20127;48.962;8.342;2023-08-06T18:20:31;17.20;99.90
33825;DHT22;20127;48.962;8.342;2023-08-06T18:23:33;17.30;99.90
33825;DHT22;20127;48.962;8.342;2023-08-06T18:26:36;17.30;99.90
33825;DHT22;20127;48.962;8.342;2023-08-06T18:29:38;17.20;99.90
33825;DHT22;20127;48.962;8.342;2023-08-06T18:32:40;17.20;99.90
33825;DHT22;20127;48.962;8.342;2023-08-06T18:35:41;17.10;99.90
33825;DHT22;20127;48.962;8.342;2023-08-06T18:38:43;17.10;99.90
33825;DHT22;20127;48.962;8.342;2023-08-06T18:41:51;17.00;99.90
33825;DHT22;20127;48.962;8.342;2023-08-06T18:44:53;16.90;99.90
33825;DHT22;20127;48.962;8.342;2023-08-06T18:47:54;16.80;99.90
33825;DHT22;20127;48.962;8.342;2023-08-06T18:50:56;16.80;99.90
33825;DHT22;20127;48.962;8.342;2023-08-06T18:53:58;16.70;99.90
33825;DHT22;20127;48.962;8.342;2023-08-06T18:57:01;16.60;99.90
33825;DHT22;20127;48.962;8.342;2023-08-06T19:00:04;16.60;99.90
33825;DHT22;20127;48.962;8.342;2023-08-06T19:03:06;16.50;99.90
33825;DHT22;20127;48.962;8.342;2023-08-06T19:06:09;16.40;99.90
33825;DHT22;20127;48.962;8.342;2023-08-06T19:09:11;16.40;99.90
33825;DHT22;20127;48.962;8.342;2023-08-06T19:12:15;16.30;99.90
33825;DHT22;20127;48.962;8.342;2023-08-06T19:15:21;16.20;99.90
33825;DHT22;20127;48.962;8.342;2023-08-06T19:18:22;16.20;99.90
33825;DHT22;20127;48.962;8.342;2023-08-06T19:21:24;16.10;99.90
33825;DHT22;20127;48.962;8.342;2023-08-06T19:24:26;16.10;99.90
33825;DHT22;20127;48.962;8.342;2023-08-06T19:27:29;16.00;99.90
33825;DHT22;20127;48.962;8.342;2023-08-06T19:30:31;16.10;99.90
33825;DHT22;20127;48.962;8.342;2023-08-06T19:33:34;16.00;99.90
33825;DHT22;20127;48.962;8.342;2023-08-06T19:36:36;15.90;99.90